sensor_id;sensor_type;location;lat;lon;timestamp;pressure;altitude;pressure_sealevel;temperature;humidity
49949;BME280;35840;45.982;8.890;2023-01-27T00:00:35;97958.25;;;4.14;72.59
49949;BME280;35840;45.982;8.890;2023-01-27T00:03:02;97959.13;;;4.13;73.37
49949;BME280;35840;45.982;8.890;2023-01-27T00:05:28;97954.78;;;4.15;72.66
49949;BME280;35840;45.982;8.890;2023-01-27T00:07:55;97957.09;;;4.21;72.11
49949;BME280;35840;45.982;8.890;2023-01-27T00:10:24;97950.94;;;4.27;72.35
49949;BME280;35840;45.982;8.890;2023-01-27T00:12:52;97949.94;;;4.29;72.79
49949;BME280;35840;45.982;8.890;2023-01-27T00:15:37;97943.66;;;4.18;73.29
49949;BME280;35840;45.982;8.890;2023-01-27T00:18:04;97951.72;;;4.07;73.32
49949;BME280;35840;45.982;8.890;2023-01-27T00:20:31;97947.56;;;4.06;73.35
49949;BME280;35840;45.982;8.890;2023-01-27T00:23:19;97951.63;;;4.10;73.27
49949;BME280;35840;45.982;8.890;2023-01-27T00:26:06;97953.09;;;4.16;73.42
49949;BME280;35840;45.982;8.890;2023-01-27T00:28:37;97943.09;;;4.11;73.33
49949;BME280;35840;45.982;8.890;2023-01-27T00:31:05;97942.13;;;4.13;73.48
49949;BME280;35840;45.982;8.890;2023-01-27T00:33:33;97944.53;;;4.17;73.66
49949;BME280;35840;45.982;8.890;2023-01-27T00:36:05;97946.53;;;4.10;73.77
49949;BME280;35840;45.982;8.890;2023-01-27T00:38:34;97931.34;;;4.08;73.56
49949;BME280;35840;45.982;8.890;2023-01-27T00:41:07;97939.97;;;4.04;73.90
49949;BME280;35840;45.982;8.890;2023-01-27T00:43:46;97939.66;;;4.12;73.44
49949;BME280;35840;45.982;8.890;2023-01-27T00:46:14;97930.25;;;4.14;73.43
49949;BME280;35840;45.982;8.890;2023-01-27T00:48:42;97929.47;;;4.12;72.97
49949;BME280;35840;45.982;8.890;2023-01-27T00:51:09;97924.13;;;3.97;73.01
49949;BME280;35840;45.982;8.890;2023-01-27T00:53:36;97924.94;;;3.98;73.63
49949;BME280;35840;45.982;8.890;2023-01-27T00:56:03;97937.31;;;4.07;73.82
49949;BME280;35840;45.982;8.890;2023-01-27T00:58:31;97922.78;;;4.09;73.52
49949;BME280;35840;45.982;8.890;2023-01-27T01:01:00;97925.28;;;4.11;74.25
49949;BME280;35840;45.982;8.890;2023-01-27T01:03:27;97923.75;;;4.07;73.87
49949;BME280;35840;45.982;8.890;2023-01-27T01:05:57;97922.03;;;4.07;73.91
49949;BME280;35840;45.982;8.890;2023-01-27T01:08:25;97920.59;;;4.02;74.72
49949;BME280;35840;45.982;8.890;2023-01-27T01:10:52;97915.16;;;4.09;73.99
49949;BME280;35840;45.982;8.890;2023-01-27T01:13:19;97921.78;;;4.13;73.86
49949;BME280;35840;45.982;8.890;2023-01-27T01:15:47;97920.97;;;4.13;74.35
49949;BME280;35840;45.982;8.890;2023-01-27T01:18:14;97922.88;;;4.08;74.22
49949;BME280;35840;45.982;8.890;2023-01-27T01:20:43;97919.25;;;4.13;73.51
49949;BME280;35840;45.982;8.890;2023-01-27T01:23:11;97913.13;;;4.18;73.56
49949;BME280;35840;45.982;8.890;2023-01-27T01:25:38;97921.56;;;4.20;72.93
49949;BME280;35840;45.982;8.890;2023-01-27T01:28:06;97918.72;;;4.05;74.07
49949;BME280;35840;45.982;8.890;2023-01-27T01:30:34;97911.00;;;4.08;74.06
49949;BME280;35840;45.982;8.890;2023-01-27T01:33:01;97913.22;;;3.95;74.14
49949;BME280;35840;45.982;8.890;2023-01-27T01:35:29;97913.03;;;4.00;73.69
49949;BME280;35840;45.982;8.890;2023-01-27T01:37:56;97909.75;;;3.96;73.79
49949;BME280;35840;45.982;8.890;2023-01-27T01:40:23;97915.78;;;3.94;74.37
49949;BME280;35840;45.982;8.890;2023-01-27T01:42:59;97914.97;;;3.93;74.18
49949;BME280;35840;45.982;8.890;2023-01-27T01:48:11;97914.91;;;3.95;74.72
49949;BME280;35840;45.982;8.890;2023-01-27T01:50:42;97912.31;;;3.96;73.55
49949;BME280;35840;45.982;8.890;2023-01-27T01:53:11;97915.91;;;3.91;73.83
49949;BME280;35840;45.982;8.890;2023-01-27T01:55:38;97898.91;;;3.93;74.64
49949;BME280;35840;45.982;8.890;2023-01-27T01:58:07;97905.59;;;3.95;74.96
49949;BME280;35840;45.982;8.890;2023-01-27T02:00:35;97903.34;;;3.88;75.05
49949;BME280;35840;45.982;8.890;2023-01-27T02:03:02;97908.34;;;3.89;75.02
49949;BME280;35840;45.982;8.890;2023-01-27T02:05:34;97907.53;;;3.89;75.42
49949;BME280;35840;45.982;8.890;2023-01-27T02:08:48;97903.94;;;3.94;75.96
49949;BME280;35840;45.982;8.890;2023-01-27T02:10:57;97910.53;;;3.99;75.61
49949;BME280;35840;45.982;8.890;2023-01-27T02:13:23;97907.81;;;4.03;75.94
49949;BME280;35840;45.982;8.890;2023-01-27T02:15:51;97900.50;;;3.95;75.27
49949;BME280;35840;45.982;8.890;2023-01-27T02:18:19;97904.16;;;3.88;75.47
49949;BME280;35840;45.982;8.890;2023-01-27T02:20:49;97896.50;;;3.90;75.93
49949;BME280;35840;45.982;8.890;2023-01-27T02:23:47;97902.31;;;3.92;75.92
49949;BME280;35840;45.982;8.890;2023-01-27T02:26:27;97898.84;;;3.94;76.21
49949;BME280;35840;45.982;8.890;2023-01-27T02:29:03;97899.59;;;3.96;75.75
49949;BME280;35840;45.982;8.890;2023-01-27T02:31:30;97897.75;;;4.00;75.20
49949;BME280;35840;45.982;8.890;2023-01-27T02:34:22;97897.97;;;3.95;75.57
49949;BME280;35840;45.982;8.890;2023-01-27T02:36:53;97900.16;;;4.03;75.17
49949;BME280;35840;45.982;8.890;2023-01-27T02:39:31;97894.75;;;4.11;74.91
49949;BME280;35840;45.982;8.890;2023-01-27T02:41:59;97891.38;;;4.10;75.37
49949;BME280;35840;45.982;8.890;2023-01-27T02:44:31;97891.25;;;4.13;74.54
49949;BME280;35840;45.982;8.890;2023-01-27T02:46:58;97896.75;;;4.04;75.36
49949;BME280;35840;45.982;8.890;2023-01-27T02:49:26;97898.84;;;3.94;74.40
49949;BME280;35840;45.982;8.890;2023-01-27T02:51:52;97897.25;;;3.92;74.76
49949;BME280;35840;45.982;8.890;2023-01-27T02:54:22;97880.84;;;3.99;76.14
49949;BME280;35840;45.982;8.890;2023-01-27T02:56:49;97897.88;;;3.97;75.70
49949;BME280;35840;45.982;8.890;2023-01-27T02:59:17;97886.94;;;3.95;76.20
49949;BME280;35840;45.982;8.890;2023-01-27T03:01:46;97880.41;;;4.10;75.40
49949;BME280;35840;45.982;8.890;2023-01-27T03:04:13;97889.78;;;4.08;74.90
49949;BME280;35840;45.982;8.890;2023-01-27T03:06:41;97886.09;;;4.15;75.16
49949;BME280;35840;45.982;8.890;2023-01-27T03:09:07;97886.38;;;4.09;75.54
49949;BME280;35840;45.982;8.890;2023-01-27T03:11:36;97878.09;;;4.04;75.22
49949;BME280;35840;45.982;8.890;2023-01-27T03:14:22;97885.66;;;4.05;73.90
49949;BME280;35840;45.982;8.890;2023-01-27T03:17:08;97886.75;;;4.00;73.70
49949;BME280;35840;45.982;8.890;2023-01-27T03:19:53;97902.97;;;3.97;74.26
49949;BME280;35840;45.982;8.890;2023-01-27T03:22:20;97893.41;;;4.02;73.32
49949;BME280;35840;45.982;8.890;2023-01-27T03:24:47;97898.69;;;3.97;73.70
49949;BME280;35840;45.982;8.890;2023-01-27T03:27:14;97888.41;;;4.01;73.42
49949;BME280;35840;45.982;8.890;2023-01-27T03:30:04;97900.44;;;3.97;74.11
49949;BME280;35840;45.982;8.890;2023-01-27T03:32:31;97890.50;;;3.91;74.64
49949;BME280;35840;45.982;8.890;2023-01-27T03:35:16;97893.34;;;4.04;72.01
49949;BME280;35840;45.982;8.890;2023-01-27T03:37:46;97896.97;;;3.98;72.20
49949;BME280;35840;45.982;8.890;2023-01-27T03:40:32;97891.72;;;4.03;71.67
49949;BME280;35840;45.982;8.890;2023-01-27T03:43:17;97893.75;;;3.94;72.59
49949;BME280;35840;45.982;8.890;2023-01-27T03:46:04;97885.09;;;3.99;72.07
49949;BME280;35840;45.982;8.890;2023-01-27T03:48:54;97885.84;;;4.01;72.21
49949;BME280;35840;45.982;8.890;2023-01-27T03:51:23;97887.31;;;4.06;72.37
49949;BME280;35840;45.982;8.890;2023-01-27T03:53:50;97891.72;;;4.03;71.29
49949;BME280;35840;45.982;8.890;2023-01-27T03:56:18;97890.19;;;3.99;71.56
49949;BME280;35840;45.982;8.890;2023-01-27T03:58:47;97894.38;;;4.00;71.91
49949;BME280;35840;45.982;8.890;2023-01-27T04:01:17;97900.38;;;3.99;71.66
49949;BME280;35840;45.982;8.890;2023-01-27T04:03:45;97870.97;;;3.71;73.13
49949;BME280;35840;45.982;8.890;2023-01-27T04:06:34;97906.59;;;3.91;74.09
49949;BME280;35840;45.982;8.890;2023-01-27T04:09:31;97906.59;;;3.91;73.60
49949;BME280;35840;45.982;8.890;2023-01-27T04:12:01;97901.13;;;4.01;74.41
49949;BME280;35840;45.982;8.890;2023-01-27T04:14:35;97901.25;;;3.97;73.79
49949;BME280;35840;45.982;8.890;2023-01-27T04:17:13;97893.34;;;4.04;73.74
49949;BME280;35840;45.982;8.890;2023-01-27T04:19:40;97889.56;;;4.14;73.47
49949;BME280;35840;45.982;8.890;2023-01-27T04:22:12;97895.16;;;4.02;73.34
49949;BME280;35840;45.982;8.890;2023-01-27T04:24:41;97893.97;;;3.88;72.68
49949;BME280;35840;45.982;8.890;2023-01-27T04:27:13;97906.00;;;3.85;71.86
49949;BME280;35840;45.982;8.890;2023-01-27T04:29:41;97909.06;;;3.93;72.20
49949;BME280;35840;45.982;8.890;2023-01-27T04:32:09;97903.22;;;3.91;69.41
49949;BME280;35840;45.982;8.890;2023-01-27T04:34:38;97905.56;;;3.75;70.09
49949;BME280;35840;45.982;8.890;2023-01-27T04:37:07;97902.53;;;3.65;70.61
49949;BME280;35840;45.982;8.890;2023-01-27T04:39:34;97905.41;;;3.57;70.79
49949;BME280;35840;45.982;8.890;2023-01-27T04:42:01;97901.06;;;3.59;70.07
49949;BME280;35840;45.982;8.890;2023-01-27T04:44:29;97904.97;;;3.68;69.80
49949;BME280;35840;45.982;8.890;2023-01-27T04:46:56;97906.16;;;3.59;69.85
49949;BME280;35840;45.982;8.890;2023-01-27T04:49:22;97907.88;;;3.59;70.04
49949;BME280;35840;45.982;8.890;2023-01-27T04:51:52;97886.97;;;3.52;69.48
49949;BME280;35840;45.982;8.890;2023-01-27T04:54:19;97906.81;;;3.65;69.64
49949;BME280;35840;45.982;8.890;2023-01-27T04:56:59;97904.22;;;3.66;69.38
49949;BME280;35840;45.982;8.890;2023-01-27T04:59:28;97904.97;;;3.68;69.88
49949;BME280;35840;45.982;8.890;2023-01-27T05:01:55;97904.84;;;3.71;69.79
49949;BME280;35840;45.982;8.890;2023-01-27T05:04:22;97891.44;;;3.68;70.20
49949;BME280;35840;45.982;8.890;2023-01-27T05:06:48;97898.75;;;3.75;69.36
49949;BME280;35840;45.982;8.890;2023-01-27T05:09:15;97909.75;;;3.76;69.41
49949;BME280;35840;45.982;8.890;2023-01-27T05:11:42;97910.69;;;3.73;69.51
49949;BME280;35840;45.982;8.890;2023-01-27T05:14:09;97908.97;;;3.74;69.30
49949;BME280;35840;45.982;8.890;2023-01-27T05:16:37;97916.44;;;3.78;68.80
49949;BME280;35840;45.982;8.890;2023-01-27T05:19:03;97914.00;;;3.75;69.23
49949;BME280;35840;45.982;8.890;2023-01-27T05:21:30;97913.50;;;3.67;69.77
49949;BME280;35840;45.982;8.890;2023-01-27T05:23:57;97915.50;;;3.59;70.49
49949;BME280;35840;45.982;8.890;2023-01-27T05:26:25;97923.25;;;3.56;71.38
49949;BME280;35840;45.982;8.890;2023-01-27T05:28:55;97918.19;;;3.56;71.48
49949;BME280;35840;45.982;8.890;2023-01-27T05:31:25;97916.19;;;3.62;71.20
49949;BME280;35840;45.982;8.890;2023-01-27T05:33:53;97916.72;;;3.71;72.11
49949;BME280;35840;45.982;8.890;2023-01-27T05:36:22;97915.91;;;3.70;72.39
49949;BME280;35840;45.982;8.890;2023-01-27T05:38:50;97926.91;;;3.71;71.50
49949;BME280;35840;45.982;8.890;2023-01-27T05:41:18;97934.34;;;3.75;69.95
49949;BME280;35840;45.982;8.890;2023-01-27T05:43:46;97936.13;;;3.73;69.08
49949;BME280;35840;45.982;8.890;2023-01-27T05:46:15;97936.06;;;3.75;69.03
49949;BME280;35840;45.982;8.890;2023-01-27T05:48:44;97939.19;;;3.82;68.36
49949;BME280;35840;45.982;8.890;2023-01-27T05:51:12;97936.72;;;3.80;67.85
49949;BME280;35840;45.982;8.890;2023-01-27T05:53:41;97945.28;;;3.77;67.80
49949;BME280;35840;45.982;8.890;2023-01-27T05:56:10;97943.56;;;3.78;67.27
49949;BME280;35840;45.982;8.890;2023-01-27T05:58:37;97953.50;;;3.84;67.27
49949;BME280;35840;45.982;8.890;2023-01-27T06:01:09;97948.41;;;3.84;67.07
49949;BME280;35840;45.982;8.890;2023-01-27T06:03:36;97958.69;;;3.81;67.09
49949;BME280;35840;45.982;8.890;2023-01-27T06:06:03;97962.84;;;3.84;66.53
49949;BME280;35840;45.982;8.890;2023-01-27T06:08:30;97966.63;;;3.73;65.34
49949;BME280;35840;45.982;8.890;2023-01-27T06:10:58;97957.59;;;3.66;65.21
49949;BME280;35840;45.982;8.890;2023-01-27T06:13:25;97952.09;;;3.55;65.54
49949;BME280;35840;45.982;8.890;2023-01-27T06:15:52;97958.44;;;3.44;65.78
49949;BME280;35840;45.982;8.890;2023-01-27T06:18:20;97965.25;;;3.42;65.99
49949;BME280;35840;45.982;8.890;2023-01-27T06:20:48;97958.69;;;3.37;66.11
49949;BME280;35840;45.982;8.890;2023-01-27T06:23:16;97970.66;;;3.35;66.39
49949;BME280;35840;45.982;8.890;2023-01-27T06:25:46;97963.91;;;3.34;66.84
49949;BME280;35840;45.982;8.890;2023-01-27T06:28:14;97975.00;;;3.31;66.67
49949;BME280;35840;45.982;8.890;2023-01-27T06:30:54;97973.25;;;3.33;66.88
49949;BME280;35840;45.982;8.890;2023-01-27T06:33:22;97966.19;;;3.40;66.81
49949;BME280;35840;45.982;8.890;2023-01-27T06:35:48;97967.69;;;3.45;67.08
49949;BME280;35840;45.982;8.890;2023-01-27T06:38:15;97970.09;;;3.49;66.55
49949;BME280;35840;45.982;8.890;2023-01-27T06:40:42;97974.44;;;3.47;67.09
49949;BME280;35840;45.982;8.890;2023-01-27T06:43:11;97964.38;;;3.43;66.40
49949;BME280;35840;45.982;8.890;2023-01-27T06:45:39;97977.72;;;3.49;66.73
49949;BME280;35840;45.982;8.890;2023-01-27T06:48:06;97977.84;;;3.45;66.62
49949;BME280;35840;45.982;8.890;2023-01-27T06:50:34;97978.78;;;3.43;66.84
49949;BME280;35840;45.982;8.890;2023-01-27T06:53:04;97976.03;;;3.49;66.55
49949;BME280;35840;45.982;8.890;2023-01-27T06:55:32;97983.88;;;3.43;66.24
49949;BME280;35840;45.982;8.890;2023-01-27T06:58:02;97985.78;;;3.38;67.14
49949;BME280;35840;45.982;8.890;2023-01-27T07:00:29;97996.53;;;3.44;67.39
49949;BME280;35840;45.982;8.890;2023-01-27T07:02:56;98000.66;;;3.47;67.32
49949;BME280;35840;45.982;8.890;2023-01-27T07:05:26;97998.03;;;3.50;67.12
49949;BME280;35840;45.982;8.890;2023-01-27T07:07:53;98006.16;;;3.58;67.48
49949;BME280;35840;45.982;8.890;2023-01-27T07:10:19;98001.19;;;3.55;67.69
49949;BME280;35840;45.982;8.890;2023-01-27T07:12:46;98009.31;;;3.65;67.68
49949;BME280;35840;45.982;8.890;2023-01-27T07:15:13;98006.34;;;3.54;68.40
49949;BME280;35840;45.982;8.890;2023-01-27T07:17:40;98016.63;;;3.51;68.74
49949;BME280;35840;45.982;8.890;2023-01-27T07:20:11;98024.75;;;3.37;68.82
49949;BME280;35840;45.982;8.890;2023-01-27T07:22:39;98029.03;;;3.36;70.06
49949;BME280;35840;45.982;8.890;2023-01-27T07:25:06;98037.22;;;3.43;70.58
49949;BME280;35840;45.982;8.890;2023-01-27T07:27:32;98035.53;;;3.43;70.09
49949;BME280;35840;45.982;8.890;2023-01-27T07:29:59;98038.72;;;3.49;70.08
49949;BME280;35840;45.982;8.890;2023-01-27T07:32:26;98049.72;;;3.49;69.63
49949;BME280;35840;45.982;8.890;2023-01-27T07:34:54;98037.34;;;3.40;70.17
49949;BME280;35840;45.982;8.890;2023-01-27T07:37:21;98049.56;;;3.30;70.99
49949;BME280;35840;45.982;8.890;2023-01-27T07:39:48;98049.16;;;3.17;70.89
49949;BME280;35840;45.982;8.890;2023-01-27T07:42:15;98045.00;;;3.15;71.16
49949;BME280;35840;45.982;8.890;2023-01-27T07:44:42;98040.22;;;3.07;71.15
49949;BME280;35840;45.982;8.890;2023-01-27T07:47:08;98038.41;;;3.10;70.16
49949;BME280;35840;45.982;8.890;2023-01-27T07:49:35;98041.47;;;3.19;70.84
49949;BME280;35840;45.982;8.890;2023-01-27T07:52:02;98046.47;;;3.22;69.98
49949;BME280;35840;45.982;8.890;2023-01-27T07:54:28;98039.63;;;3.24;70.13
49949;BME280;35840;45.982;8.890;2023-01-27T07:56:58;98044.41;;;3.32;69.08
49949;BME280;35840;45.982;8.890;2023-01-27T07:59:25;98031.06;;;3.26;69.24
49949;BME280;35840;45.982;8.890;2023-01-27T08:01:52;98046.13;;;3.31;69.62
49949;BME280;35840;45.982;8.890;2023-01-27T08:04:18;98053.06;;;3.27;70.26
49949;BME280;35840;45.982;8.890;2023-01-27T08:06:45;98048.28;;;3.18;70.25
49949;BME280;35840;45.982;8.890;2023-01-27T08:09:12;98056.03;;;3.15;70.01
49949;BME280;35840;45.982;8.890;2023-01-27T08:11:38;98055.28;;;3.12;70.63
49949;BME280;35840;45.982;8.890;2023-01-27T08:14:05;98065.72;;;3.04;70.28
49949;BME280;35840;45.982;8.890;2023-01-27T08:16:32;98066.59;;;3.03;69.50
49949;BME280;35840;45.982;8.890;2023-01-27T08:18:58;98054.84;;;3.00;70.05
49949;BME280;35840;45.982;8.890;2023-01-27T08:21:25;98060.84;;;2.98;69.26
49949;BME280;35840;45.982;8.890;2023-01-27T08:24:00;98074.78;;;3.11;69.29
49949;BME280;35840;45.982;8.890;2023-01-27T08:26:27;98083.34;;;3.08;68.72
49949;BME280;35840;45.982;8.890;2023-01-27T08:28:54;98085.00;;;3.09;67.86
49949;BME280;35840;45.982;8.890;2023-01-27T08:31:21;98080.16;;;3.02;67.12
49949;BME280;35840;45.982;8.890;2023-01-27T08:33:52;98081.16;;;2.98;67.35
49949;BME280;35840;45.982;8.890;2023-01-27T08:36:20;98086.22;;;2.99;68.28
49949;BME280;35840;45.982;8.890;2023-01-27T08:38:47;98094.94;;;2.90;68.76
49949;BME280;35840;45.982;8.890;2023-01-27T08:41:17;98091.94;;;2.79;67.74
49949;BME280;35840;45.982;8.890;2023-01-27T08:43:45;98093.59;;;2.80;69.08
49949;BME280;35840;45.982;8.890;2023-01-27T08:46:12;98097.81;;;2.81;68.92
49949;BME280;35840;45.982;8.890;2023-01-27T08:48:39;98096.03;;;2.83;68.14
49949;BME280;35840;45.982;8.890;2023-01-27T08:51:07;98106.97;;;2.85;67.71
49949;BME280;35840;45.982;8.890;2023-01-27T08:53:35;98107.63;;;2.90;68.98
49949;BME280;35840;45.982;8.890;2023-01-27T08:56:09;98105.88;;;2.92;67.55
49949;BME280;35840;45.982;8.890;2023-01-27T08:58:37;98109.94;;;2.98;67.11
49949;BME280;35840;45.982;8.890;2023-01-27T09:01:05;98113.50;;;2.92;67.76
49949;BME280;35840;45.982;8.890;2023-01-27T09:03:33;98099.53;;;2.79;67.26
49949;BME280;35840;45.982;8.890;2023-01-27T09:06:03;98114.72;;;2.81;67.49
49949;BME280;35840;45.982;8.890;2023-01-27T09:08:30;98112.88;;;2.86;67.01
49949;BME280;35840;45.982;8.890;2023-01-27T09:10:58;98110.84;;;2.96;66.33
49949;BME280;35840;45.982;8.890;2023-01-27T09:13:25;98113.50;;;2.92;66.64
49949;BME280;35840;45.982;8.890;2023-01-27T09:15:53;98117.66;;;2.95;66.67
49949;BME280;35840;45.982;8.890;2023-01-27T09:18:20;98116.81;;;2.95;67.29
49949;BME280;35840;45.982;8.890;2023-01-27T09:20:47;98121.13;;;2.92;66.63
49949;BME280;35840;45.982;8.890;2023-01-27T09:23:13;98105.53;;;2.78;66.95
49949;BME280;35840;45.982;8.890;2023-01-27T09:25:40;98112.72;;;2.90;66.61
49949;BME280;35840;45.982;8.890;2023-01-27T09:28:07;98115.25;;;2.90;66.72
49949;BME280;35840;45.982;8.890;2023-01-27T09:30:43;98124.53;;;2.91;66.51
49949;BME280;35840;45.982;8.890;2023-01-27T09:33:14;98117.75;;;2.92;65.96
49949;BME280;35840;45.982;8.890;2023-01-27T09:36:15;98116.91;;;2.91;65.98
49949;BME280;35840;45.982;8.890;2023-01-27T09:38:50;98118.78;;;2.86;66.89
49949;BME280;35840;45.982;8.890;2023-01-27T09:44:21;98123.28;;;3.03;66.25
49949;BME280;35840;45.982;8.890;2023-01-27T09:49:39;98120.81;;;3.02;66.91
49949;BME280;35840;45.982;8.890;2023-01-27T10:03:24;98131.00;;;3.00;66.16
49949;BME280;35840;45.982;8.890;2023-01-27T10:11:41;98121.66;;;3.02;65.16
49949;BME280;35840;45.982;8.890;2023-01-27T10:15:20;98111.44;;;3.04;64.85
49949;BME280;35840;45.982;8.890;2023-01-27T10:20:43;98107.06;;;3.07;65.26
49949;BME280;35840;45.982;8.890;2023-01-27T10:26:19;98107.13;;;3.06;66.39
49949;BME280;35840;45.982;8.890;2023-01-27T10:29:08;98110.56;;;3.05;66.95
49949;BME280;35840;45.982;8.890;2023-01-27T10:34:47;98105.47;;;3.05;66.31
49949;BME280;35840;45.982;8.890;2023-01-27T10:39:59;98102.97;;;3.03;65.96
49949;BME280;35840;45.982;8.890;2023-01-27T10:42:38;98099.44;;;3.07;66.39
49949;BME280;35840;45.982;8.890;2023-01-27T10:45:23;98094.38;;;3.07;65.90
49949;BME280;35840;45.982;8.890;2023-01-27T10:50:48;98085.94;;;3.07;65.70
49949;BME280;35840;45.982;8.890;2023-01-27T10:53:20;98096.09;;;3.07;65.74
49949;BME280;35840;45.982;8.890;2023-01-27T10:56:10;98094.59;;;3.01;65.56
49949;BME280;35840;45.982;8.890;2023-01-27T11:01:24;98084.84;;;2.89;66.92
49949;BME280;35840;45.982;8.890;2023-01-27T11:04:07;98088.16;;;2.91;67.26
49949;BME280;35840;45.982;8.890;2023-01-27T11:06:39;98086.50;;;2.90;68.83
49949;BME280;35840;45.982;8.890;2023-01-27T11:09:19;98087.91;;;2.99;67.86
49949;BME280;35840;45.982;8.890;2023-01-27T11:11:51;98086.16;;;3.01;67.63
49949;BME280;35840;45.982;8.890;2023-01-27T11:14:30;98081.06;;;3.01;67.17
49949;BME280;35840;45.982;8.890;2023-01-27T11:22:25;98081.38;;;2.91;67.29
49949;BME280;35840;45.982;8.890;2023-01-27T11:25:06;98079.63;;;2.93;67.70
49949;BME280;35840;45.982;8.890;2023-01-27T11:27:55;98070.81;;;3.04;66.86
49949;BME280;35840;45.982;8.890;2023-01-27T11:30:32;98074.31;;;3.00;66.57
49949;BME280;35840;45.982;8.890;2023-01-27T11:33:18;98076.66;;;3.06;66.13
49949;BME280;35840;45.982;8.890;2023-01-27T11:35:48;98069.88;;;3.06;66.69
49949;BME280;35840;45.982;8.890;2023-01-27T11:38:18;98070.75;;;3.05;66.51
49949;BME280;35840;45.982;8.890;2023-01-27T11:40:45;98072.47;;;3.05;67.04
49949;BME280;35840;45.982;8.890;2023-01-27T11:43:17;98063.00;;;3.08;67.58
49949;BME280;35840;45.982;8.890;2023-01-27T11:45:44;98061.28;;;3.09;66.67
49949;BME280;35840;45.982;8.890;2023-01-27T11:48:15;98064.13;;;3.01;67.60
49949;BME280;35840;45.982;8.890;2023-01-27T11:50:44;98071.56;;;3.06;67.60
49949;BME280;35840;45.982;8.890;2023-01-27T11:53:17;98058.72;;;3.10;67.19
49949;BME280;35840;45.982;8.890;2023-01-27T11:55:49;98044.56;;;3.03;67.14
49949;BME280;35840;45.982;8.890;2023-01-27T12:00:46;98047.91;;;3.05;67.51
49949;BME280;35840;45.982;8.890;2023-01-27T12:06:04;98051.41;;;3.01;67.09
49949;BME280;35840;45.982;8.890;2023-01-27T12:11:28;98052.91;;;3.07;66.93
49949;BME280;35840;45.982;8.890;2023-01-27T12:14:00;98046.28;;;3.03;67.15
49949;BME280;35840;45.982;8.890;2023-01-27T12:16:48;98043.56;;;3.07;67.26
49949;BME280;35840;45.982;8.890;2023-01-27T12:19:49;98040.16;;;3.08;66.97
49949;BME280;35840;45.982;8.890;2023-01-27T12:22:25;98033.41;;;3.07;67.33
49949;BME280;35840;45.982;8.890;2023-01-27T12:24:56;98032.47;;;3.10;67.05
49949;BME280;35840;45.982;8.890;2023-01-27T12:27:28;98036.91;;;3.05;67.43
49949;BME280;35840;45.982;8.890;2023-01-27T12:30:00;98028.56;;;3.01;67.05
49949;BME280;35840;45.982;8.890;2023-01-27T12:32:40;98029.06;;;3.11;67.63
49949;BME280;35840;45.982;8.890;2023-01-27T12:35:28;98034.91;;;3.13;67.17
49949;BME280;35840;45.982;8.890;2023-01-27T12:38:04;98035.03;;;3.10;66.00
49949;BME280;35840;45.982;8.890;2023-01-27T12:40:33;98040.78;;;3.15;66.75
49949;BME280;35840;45.982;8.890;2023-01-27T12:43:15;98029.88;;;3.12;66.67
49949;BME280;35840;45.982;8.890;2023-01-27T12:45:42;98039.84;;;3.18;67.09
49949;BME280;35840;45.982;8.890;2023-01-27T12:53:29;98030.19;;;3.27;66.58
49949;BME280;35840;45.982;8.890;2023-01-27T12:58:35;98021.91;;;3.22;65.59
49949;BME280;35840;45.982;8.890;2023-01-27T13:01:21;98029.06;;;3.11;66.41
49949;BME280;35840;45.982;8.890;2023-01-27T13:03:51;98029.00;;;3.13;65.76
49949;BME280;35840;45.982;8.890;2023-01-27T13:06:32;98028.72;;;3.20;66.66
49949;BME280;35840;45.982;8.890;2023-01-27T13:09:00;98027.09;;;3.19;65.60
49949;BME280;35840;45.982;8.890;2023-01-27T13:11:37;98025.75;;;3.09;65.67
49949;BME280;35840;45.982;8.890;2023-01-27T13:14:15;98029.94;;;3.10;66.62
49949;BME280;35840;45.982;8.890;2023-01-27T13:16:52;98031.56;;;3.13;66.52
49949;BME280;35840;45.982;8.890;2023-01-27T13:19:23;98032.31;;;3.15;66.00
49949;BME280;35840;45.982;8.890;2023-01-27T13:21:52;98023.81;;;3.16;65.02
49949;BME280;35840;45.982;8.890;2023-01-27T13:24:35;98037.69;;;3.31;66.00
49949;BME280;35840;45.982;8.890;2023-01-27T13:27:13;98029.03;;;3.36;66.18
49949;BME280;35840;45.982;8.890;2023-01-27T13:29:43;98034.53;;;3.24;66.46
49949;BME280;35840;45.982;8.890;2023-01-27T13:32:20;98036.78;;;3.32;65.73
49949;BME280;35840;45.982;8.890;2023-01-27T13:37:32;98033.00;;;3.20;65.68
49949;BME280;35840;45.982;8.890;2023-01-27T13:42:45;98032.31;;;3.38;65.75
49949;BME280;35840;45.982;8.890;2023-01-27T13:47:56;98034.66;;;3.44;65.03
49949;BME280;35840;45.982;8.890;2023-01-27T13:50:30;98025.38;;;3.43;65.57
49949;BME280;35840;45.982;8.890;2023-01-27T13:52:58;98022.28;;;3.35;65.45
49949;BME280;35840;45.982;8.890;2023-01-27T14:00:54;98029.59;;;3.43;65.14
49949;BME280;35840;45.982;8.890;2023-01-27T14:15:26;98016.50;;;3.54;63.92
49949;BME280;35840;45.982;8.890;2023-01-27T14:17:59;98022.25;;;3.59;64.86
49949;BME280;35840;45.982;8.890;2023-01-27T14:21:07;98028.69;;;3.68;64.54
49949;BME280;35840;45.982;8.890;2023-01-27T14:24:00;98028.03;;;3.62;63.66
49949;BME280;35840;45.982;8.890;2023-01-27T14:32:05;98016.50;;;3.54;63.98
49949;BME280;35840;45.982;8.890;2023-01-27T14:37:24;98029.88;;;3.59;63.44
49949;BME280;35840;45.982;8.890;2023-01-27T14:42:56;98019.34;;;3.68;63.37
49949;BME280;35840;45.982;8.890;2023-01-27T14:45:36;98027.03;;;3.67;63.44
49949;BME280;35840;45.982;8.890;2023-01-27T14:53:18;98024.56;;;3.41;63.72
49949;BME280;35840;45.982;8.890;2023-01-27T14:56:07;98022.44;;;3.31;63.81
49949;BME280;35840;45.982;8.890;2023-01-27T14:58:45;98015.38;;;3.39;65.10
49949;BME280;35840;45.982;8.890;2023-01-27T15:01:39;98022.94;;;3.40;64.08
49949;BME280;35840;45.982;8.890;2023-01-27T15:07:03;98015.59;;;3.33;64.15
49949;BME280;35840;45.982;8.890;2023-01-27T15:21:04;98025.25;;;3.23;64.61
49949;BME280;35840;45.982;8.890;2023-01-27T15:26:19;98035.22;;;3.29;64.44
49949;BME280;35840;45.982;8.890;2023-01-27T15:28:47;98024.38;;;3.24;63.36
49949;BME280;35840;45.982;8.890;2023-01-27T15:36:38;98020.84;;;3.28;63.50
49949;BME280;35840;45.982;8.890;2023-01-27T15:41:36;98017.91;;;3.39;63.21
49949;BME280;35840;45.982;8.890;2023-01-27T15:46:53;98012.44;;;3.50;62.97